Time;durP1;ratioP1;P1;durP2;ratioP2;P2;SDS_P1;SDS_P2;PMS_P1;PMS_P2;Temp;Humidity;BMP_temperature;BMP_pressure;BME280_temperature;BME280_humidity;BME280_pressure;Samples;Min_cycle;Max_cycle;Signal;HPM_P1;HPM_P2
2024/01/11 00:01:59;;;;;;;40.65;18.90;;;;;;;;;;5112080;28;20110;-47
2024/01/11 00:04:26;;;;;;;29.33;18.93;;;;;;;;;;5112100;28;20209;-45
2024/01/11 00:06:52;;;;;;;31.10;18.67;;;;;;;;;;5111145;28;20028;-44
2024/01/11 00:09:18;;;;;;;30.48;17.48;;;;;;;;;;5112258;28;20055;-46
2024/01/11 00:11:44;;;;;;;32.25;17.98;;;;;;;;;;5110575;28;20379;-46
2024/01/11 00:14:11;;;;;;;26.83;16.83;;;;;;;;;;5110984;28;20106;-46
2024/01/11 00:16:37;;;;;;;29.67;16.73;;;;;;;;;;5111892;28;20065;-46
2024/01/11 00:19:03;;;;;;;26.88;16.73;;;;;;;;;;5112135;28;20034;-46
2024/01/11 00:21:29;;;;;;;28.10;17.80;;;;;;;;;;5111096;28;20312;-45
2024/01/11 00:23:55;;;;;;;28.08;17.38;;;;;;;;;;5110359;28;20044;-45
2024/01/11 00:26:21;;;;;;;33.53;18.20;;;;;;;;;;5112036;28;20482;-47
2024/01/11 00:28:48;;;;;;;28.35;15.80;;;;;;;;;;5110736;28;20631;-45
2024/01/11 00:31:14;;;;;;;27.13;17.08;;;;;;;;;;5110691;28;20027;-45
2024/01/11 00:33:40;;;;;;;28.50;17.83;;;;;;;;;;5109227;28;20032;-46
2024/01/11 00:36:06;;;;;;;30.10;17.40;;;;;;;;;;5110183;28;20040;-45
2024/01/11 00:38:32;;;;;;;40.03;20.10;;;;;;;;;;5111981;28;20038;-46
2024/01/11 00:40:59;;;;;;;39.47;19.63;;;;;;;;;;5090834;28;20028;-45
2024/01/11 00:43:25;;;;;;;37.10;21.38;;;;;;;;;;5110413;28;20031;-45
2024/01/11 00:45:51;;;;;;;33.07;21.20;;;;;;;;;;5110660;28;20511;-45
2024/01/11 00:48:17;;;;;;;28.38;14.15;;;;;;;;;;5110567;28;20481;-46
2024/01/11 00:50:43;;;;;;;33.83;19.60;;;;;;;;;;5110130;28;20047;-46
2024/01/11 00:53:10;;;;;;;36.53;20.60;;;;;;;;;;5110539;28;20061;-45
2024/01/11 00:55:37;;;;;;;38.47;18.40;;;;;;;;;;5111483;28;20019;-46
2024/01/11 00:58:03;;;;;;;34.30;19.85;;;;;;;;;;5110437;28;20567;-47
2024/01/11 01:00:29;;;;;;;35.58;19.77;;;;;;;;;;5110452;28;20061;-46
2024/01/11 01:02:55;;;;;;;27.98;17.38;;;;;;;;;;5112380;28;20031;-47
2024/01/11 01:05:21;;;;;;;28.93;17.90;;;;;;;;;;5115742;28;20106;-46
2024/01/11 01:07:48;;;;;;;28.27;16.50;;;;;;;;;;5114651;28;20019;-46
2024/01/11 01:10:14;;;;;;;30.63;16.00;;;;;;;;;;5114469;28;20409;-48
2024/01/11 01:12:40;;;;;;;28.48;17.50;;;;;;;;;;5114340;28;20344;-47
2024/01/11 01:15:07;;;;;;;24.93;15.70;;;;;;;;;;5115191;28;20110;-44
2024/01/11 01:17:34;;;;;;;25.48;14.43;;;;;;;;;;5115510;28;20297;-49
2024/01/11 01:20:00;;;;;;;24.50;14.95;;;;;;;;;;5115557;28;20024;-46
2024/01/11 01:22:26;;;;;;;27.53;14.90;;;;;;;;;;5115527;28;20020;-48
2024/01/11 01:24:52;;;;;;;25.63;14.43;;;;;;;;;;5115174;28;20257;-50
2024/01/11 01:27:18;;;;;;;32.27;17.37;;;;;;;;;;5115509;28;20024;-47
2024/01/11 01:29:45;;;;;;;29.55;17.80;;;;;;;;;;5114563;28;20015;-48
2024/01/11 01:32:11;;;;;;;28.87;18.07;;;;;;;;;;5095262;28;20020;-47
2024/01/11 01:34:37;;;;;;;29.67;15.88;;;;;;;;;;5097800;28;20020;-46
2024/01/11 01:37:03;;;;;;;26.47;15.33;;;;;;;;;;5115419;28;20028;-47
2024/01/11 01:39:29;;;;;;;31.07;15.77;;;;;;;;;;5114679;28;20470;-49
2024/01/11 01:41:56;;;;;;;34.95;15.98;;;;;;;;;;5115118;28;20296;-47
2024/01/11 01:44:22;;;;;;;28.93;14.57;;;;;;;;;;5113832;28;20027;-50
2024/01/11 01:46:49;;;;;;;27.45;15.02;;;;;;;;;;5115130;28;20023;-46
2024/01/11 01:49:18;;;;;;;26.70;14.85;;;;;;;;;;5114980;28;20039;-46
2024/01/11 01:51:44;;;;;;;26.27;13.50;;;;;;;;;;5115158;28;20028;-46
2024/01/11 01:54:10;;;;;;;28.97;14.73;;;;;;;;;;5114842;28;20039;-46
2024/01/11 01:56:37;;;;;;;32.22;15.43;;;;;;;;;;5097616;28;20493;-48
2024/01/11 01:59:04;;;;;;;23.73;14.32;;;;;;;;;;5113504;28;20027;-48
2024/01/11 02:01:30;;;;;;;25.48;15.13;;;;;;;;;;5113336;28;20393;-49
2024/01/11 02:03:57;;;;;;;26.83;15.00;;;;;;;;;;5114524;28;20027;-48
2024/01/11 02:06:26;;;;;;;23.95;14.73;;;;;;;;;;5114790;28;20093;-49
2024/01/11 02:08:55;;;;;;;25.92;15.23;;;;;;;;;;5114810;28;20034;-50
2024/01/11 02:11:23;;;;;;;29.70;15.85;;;;;;;;;;5114597;28;20108;-46
2024/01/11 02:13:50;;;;;;;26.83;16.50;;;;;;;;;;5114230;28;20112;-47
2024/01/11 02:16:16;;;;;;;29.02;15.13;;;;;;;;;;5114162;28;20024;-50
2024/01/11 02:18:43;;;;;;;26.47;15.87;;;;;;;;;;5114369;28;20123;-48
2024/01/11 02:21:10;;;;;;;25.10;15.07;;;;;;;;;;5114708;28;20032;-46
2024/01/11 02:23:36;;;;;;;;;;;;;;;;;;5115020;28;20034;-46
2024/01/11 02:26:02;;;;;;;28.85;14.48;;;;;;;;;;5114456;28;19908;-46
2024/01/11 02:28:28;;;;;;;25.37;15.27;;;;;;;;;;5114454;28;20039;-46
2024/01/11 02:30:55;;;;;;;26.02;14.63;;;;;;;;;;5114640;28;20470;-46
2024/01/11 02:33:21;;;;;;;29.60;15.77;;;;;;;;;;5114543;28;20099;-45
2024/01/11 02:35:47;;;;;;;28.53;15.90;;;;;;;;;;5114032;28;20015;-47
2024/01/11 02:38:14;;;;;;;28.70;16.05;;;;;;;;;;5114330;28;20046;-46
2024/01/11 02:40:40;;;;;;;28.08;15.05;;;;;;;;;;5114249;28;20065;-45
2024/01/11 02:43:10;;;;;;;25.75;15.60;;;;;;;;;;5114168;28;20122;-45
2024/01/11 02:45:37;;;;;;;29.67;16.42;;;;;;;;;;5112521;28;20040;-46
2024/01/11 02:48:03;;;;;;;27.85;17.02;;;;;;;;;;5112819;28;20039;-45
2024/01/11 02:50:29;;;;;;;29.48;16.98;;;;;;;;;;5112826;28;20028;-45
2024/01/11 02:52:55;;;;;;;23.92;16.52;;;;;;;;;;5113574;28;20405;-46
2024/01/11 02:55:22;;;;;;;31.80;17.53;;;;;;;;;;5113377;28;20176;-45
2024/01/11 02:57:48;;;;;;;30.63;18.05;;;;;;;;;;5113544;28;20034;-45
2024/01/11 03:00:14;;;;;;;24.40;15.30;;;;;;;;;;5111908;28;20024;-45
2024/01/11 03:02:40;;;;;;;33.10;17.90;;;;;;;;;;5113790;28;20031;-48
2024/01/11 03:05:06;;;;;;;29.50;17.50;;;;;;;;;;5113322;28;20035;-47
2024/01/11 03:07:33;;;;;;;29.13;16.67;;;;;;;;;;5112041;28;20031;-47
2024/01/11 03:09:59;;;;;;;33.45;17.50;;;;;;;;;;5113635;28;20027;-46
2024/01/11 03:12:26;;;;;;;25.70;17.27;;;;;;;;;;5113407;28;20084;-46
2024/01/11 03:14:52;;;;;;;31.02;18.13;;;;;;;;;;5113045;28;20023;-45
2024/01/11 03:17:18;;;;;;;38.27;17.07;;;;;;;;;;5113017;28;20115;-46
2024/01/11 03:19:45;;;;;;;30.17;17.48;;;;;;;;;;5113296;28;20779;-47
2024/01/11 03:22:12;;;;;;;27.70;17.00;;;;;;;;;;5113215;28;20401;-45
2024/01/11 03:24:41;;;;;;;29.05;16.48;;;;;;;;;;5112929;28;20035;-46
2024/01/11 03:27:07;;;;;;;32.22;18.20;;;;;;;;;;5112206;28;20024;-45
2024/01/11 03:29:33;;;;;;;28.75;18.00;;;;;;;;;;5112790;28;20036;-46
2024/01/11 03:32:00;;;;;;;32.33;17.73;;;;;;;;;;5113253;28;20473;-46
2024/01/11 03:34:26;;;;;;;34.35;18.17;;;;;;;;;;5112979;28;20031;-47
2024/01/11 03:36:52;;;;;;;30.65;17.25;;;;;;;;;;5111678;28;20050;-46
2024/01/11 03:39:18;;;;;;;32.10;18.00;;;;;;;;;;5112225;28;20111;-45
2024/01/11 03:41:45;;;;;;;33.38;18.25;;;;;;;;;;5111868;28;20470;-46
2024/01/11 03:44:13;;;;;;;34.00;16.95;;;;;;;;;;5110993;28;20031;-46
2024/01/11 03:46:39;;;;;;;35.83;19.08;;;;;;;;;;5112292;28;20554;-45
2024/01/11 03:49:07;;;;;;;35.50;19.03;;;;;;;;;;5111332;28;20039;-46
2024/01/11 03:51:34;;;;;;;31.65;17.42;;;;;;;;;;5112748;28;20425;-48
2024/01/11 03:54:00;;;;;;;30.92;16.92;;;;;;;;;;5111577;28;20080;-45
2024/01/11 03:56:26;;;;;;;26.83;16.30;;;;;;;;;;5112492;28;20032;-46
2024/01/11 03:58:52;;;;;;;33.30;17.27;;;;;;;;;;5113103;28;20039;-46
2024/01/11 04:01:19;;;;;;;27.95;17.02;;;;;;;;;;5110935;28;20478;-46
2024/01/11 04:03:45;;;;;;;40.75;20.10;;;;;;;;;;5111158;28;20401;-47
2024/01/11 04:06:21;;;;;;;33.50;18.43;;;;;;;;;;5111219;28;20023;-46
2024/01/11 04:08:47;;;;;;;33.45;19.27;;;;;;;;;;5111816;28;20114;-45
2024/01/11 04:11:13;;;;;;;36.95;19.83;;;;;;;;;;5111313;28;20373;-46
2024/01/11 04:13:40;;;;;;;32.80;20.07;;;;;;;;;;5111438;28;20394;-46
2024/01/11 04:16:06;;;;;;;35.88;19.45;;;;;;;;;;5112125;28;20026;-47
2024/01/11 04:18:33;;;;;;;32.17;19.58;;;;;;;;;;5112486;28;20028;-45
2024/01/11 04:20:59;;;;;;;35.53;19.85;;;;;;;;;;5112333;28;20047;-46
2024/01/11 04:23:25;;;;;;;39.10;21.47;;;;;;;;;;5111899;28;20067;-46
2024/01/11 04:25:52;;;;;;;33.70;20.50;;;;;;;;;;5111252;28;20442;-46
2024/01/11 04:28:18;;;;;;;35.80;20.55;;;;;;;;;;5112031;28;20031;-48
2024/01/11 04:30:44;;;;;;;35.65;21.30;;;;;;;;;;5110566;28;20047;-46
2024/01/11 04:33:10;;;;;;;35.13;21.67;;;;;;;;;;5111918;28;20031;-45
2024/01/11 04:35:37;;;;;;;35.37;20.90;;;;;;;;;;5110992;28;20031;-46
2024/01/11 04:38:03;;;;;;;32.95;20.83;;;;;;;;;;5109440;28;20030;-46
2024/01/11 04:40:29;;;;;;;34.57;20.70;;;;;;;;;;5111950;28;20038;-46
2024/01/11 04:42:55;;;;;;;34.83;20.33;;;;;;;;;;5112262;28;20032;-45
2024/01/11 04:45:22;;;;;;;39.13;21.83;;;;;;;;;;5111557;28;20023;-51
2024/01/11 04:47:50;;;;;;;36.23;21.23;;;;;;;;;;5111913;28;20485;-47
2024/01/11 04:50:16;;;;;;;36.80;20.50;;;;;;;;;;5110651;28;20028;-49
2024/01/11 04:52:43;;;;;;;40.80;22.43;;;;;;;;;;5111422;28;20053;-49
2024/01/11 04:55:09;;;;;;;34.77;20.00;;;;;;;;;;5109979;28;20016;-44
2024/01/11 04:57:35;;;;;;;31.43;18.70;;;;;;;;;;5110366;28;20027;-49
2024/01/11 05:00:01;;;;;;;35.87;20.20;;;;;;;;;;5112700;28;20027;-48
2024/01/11 05:02:27;;;;;;;35.97;21.17;;;;;;;;;;5111661;28;20027;-49
2024/01/11 05:04:54;;;;;;;39.38;20.42;;;;;;;;;;5111550;28;20038;-48
2024/01/11 05:07:20;;;;;;;31.90;20.00;;;;;;;;;;5110659;28;20024;-49
2024/01/11 05:09:46;;;;;;;33.77;20.20;;;;;;;;;;5110841;28;20039;-48
2024/01/11 05:12:12;;;;;;;33.05;18.92;;;;;;;;;;5111884;28;20027;-48
2024/01/11 05:14:38;;;;;;;33.25;19.75;;;;;;;;;;5111703;28;20468;-48
2024/01/11 05:17:05;;;;;;;33.47;19.50;;;;;;;;;;5111874;28;20422;-50
2024/01/11 05:19:31;;;;;;;38.83;20.23;;;;;;;;;;5111687;28;20068;-48
2024/01/11 05:21:57;;;;;;;37.20;20.90;;;;;;;;;;5112193;28;20055;-47
2024/01/11 05:24:23;;;;;;;38.08;21.73;;;;;;;;;;5111526;28;20024;-47
2024/01/11 05:26:49;;;;;;;36.67;20.00;;;;;;;;;;5093569;28;20023;-46
2024/01/11 05:29:16;;;;;;;35.27;20.33;;;;;;;;;;5110469;28;20027;-48
2024/01/11 05:31:42;;;;;;;35.20;21.65;;;;;;;;;;5111738;28;20024;-47
2024/01/11 05:34:11;;;;;;;34.97;19.98;;;;;;;;;;5110415;28;20501;-50
2024/01/11 05:36:38;;;;;;;36.72;20.58;;;;;;;;;;5111423;28;20481;-47
2024/01/11 05:39:04;;;;;;;36.07;18.33;;;;;;;;;;5111631;28;20035;-47
2024/01/11 05:41:30;;;;;;;30.63;18.87;;;;;;;;;;5111675;28;20115;-50
2024/01/11 05:43:56;;;;;;;35.70;19.73;;;;;;;;;;5110281;28;20031;-46
2024/01/11 05:46:22;;;;;;;32.67;18.95;;;;;;;;;;5111508;28;20070;-46
2024/01/11 05:48:48;;;;;;;41.00;22.17;;;;;;;;;;5111642;28;20028;-47
2024/01/11 05:51:15;;;;;;;36.20;21.85;;;;;;;;;;5115314;28;20051;-47
2024/01/11 05:53:41;;;;;;;41.90;21.98;;;;;;;;;;5115110;28;20031;-47
2024/01/11 05:56:10;;;;;;;39.33;20.93;;;;;;;;;;5115205;28;20023;-46
2024/01/11 05:58:38;;;;;;;35.35;20.75;;;;;;;;;;5113902;28;20027;-52
2024/01/11 06:01:04;;;;;;;37.83;19.77;;;;;;;;;;5115091;28;20019;-47
2024/01/11 06:03:33;;;;;;;37.27;21.00;;;;;;;;;;5114727;28;20035;-47
2024/01/11 06:06:01;;;;;;;36.83;20.95;;;;;;;;;;5114941;28;20266;-49
2024/01/11 06:08:27;;;;;;;39.92;21.33;;;;;;;;;;5113726;28;20027;-48
2024/01/11 06:10:54;;;;;;;33.93;20.20;;;;;;;;;;5114980;28;20551;-49
2024/01/11 06:13:20;;;;;;;34.72;20.30;;;;;;;;;;5114928;28;20389;-51
2024/01/11 06:15:46;;;;;;;41.43;22.13;;;;;;;;;;5114442;28;20535;-48
2024/01/11 06:18:12;;;;;;;38.73;22.50;;;;;;;;;;5096523;28;20352;-51
2024/01/11 06:20:38;;;;;;;36.50;21.10;;;;;;;;;;5113389;28;20035;-47
2024/01/11 06:23:04;;;;;;;56.03;22.07;;;;;;;;;;5113497;28;20077;-50
2024/01/11 06:25:31;;;;;;;52.10;23.83;;;;;;;;;;5113235;28;20081;-49
2024/01/11 06:27:57;;;;;;;37.20;21.17;;;;;;;;;;5114567;28;20689;-52
2024/01/11 06:30:23;;;;;;;40.63;21.13;;;;;;;;;;5113172;28;20031;-48
2024/01/11 06:32:49;;;;;;;56.58;23.77;;;;;;;;;;5114429;28;20250;-46
2024/01/11 06:35:15;;;;;;;50.53;24.30;;;;;;;;;;5112989;28;20070;-48
2024/01/11 06:37:42;;;;;;;46.00;23.55;;;;;;;;;;5114461;28;20042;-51
2024/01/11 06:40:08;;;;;;;43.53;22.10;;;;;;;;;;5114356;28;20085;-52
2024/01/11 06:42:34;;;;;;;46.73;22.20;;;;;;;;;;5114416;28;20028;-49
2024/01/11 06:45:01;;;;;;;49.40;23.65;;;;;;;;;;5113904;28;20754;-50
2024/01/11 06:47:27;;;;;;;42.55;24.23;;;;;;;;;;5114119;28;20024;-46
2024/01/11 06:49:54;;;;;;;47.23;24.30;;;;;;;;;;5114243;28;20115;-52
2024/01/11 06:52:20;;;;;;;51.80;24.35;;;;;;;;;;5114140;28;20026;-49
2024/01/11 06:54:46;;;;;;;42.77;23.30;;;;;;;;;;5113990;28;20047;-51
2024/01/11 06:57:12;;;;;;;52.40;25.87;;;;;;;;;;5112762;28;20032;-48
2024/01/11 06:59:38;;;;;;;45.70;23.77;;;;;;;;;;5114429;28;20019;-48
2024/01/11 07:02:04;;;;;;;39.47;22.35;;;;;;;;;;5112847;28;20546;-51
2024/01/11 07:04:31;;;;;;;42.83;22.97;;;;;;;;;;5113756;28;20046;-52
2024/01/11 07:06:57;;;;;;;40.47;21.48;;;;;;;;;;5095656;28;20627;-47
2024/01/11 07:09:25;;;;;;;39.60;22.10;;;;;;;;;;5113753;28;20089;-50
2024/01/11 07:11:51;;;;;;;60.78;25.15;;;;;;;;;;5113657;28;20039;-51
2024/01/11 07:14:17;;;;;;;81.60;29.00;;;;;;;;;;5113351;28;20387;-50
2024/01/11 07:16:43;;;;;;;51.33;23.08;;;;;;;;;;5113925;28;20031;-50
2024/01/11 07:19:11;;;;;;;36.72;22.98;;;;;;;;;;5113660;28;20023;-50
2024/01/11 07:21:37;;;;;;;40.72;23.30;;;;;;;;;;5113582;28;20028;-51
2024/01/11 07:24:03;;;;;;;44.57;23.97;;;;;;;;;;5113426;28;20038;-50
2024/01/11 07:26:30;;;;;;;43.97;22.50;;;;;;;;;;5113333;27;20103;-51
2024/01/11 07:28:56;;;;;;;52.90;26.17;;;;;;;;;;5113305;28;20047;-53
2024/01/11 07:31:22;;;;;;;40.60;24.23;;;;;;;;;;5113620;28;20389;-50
2024/01/11 07:33:48;;;;;;;40.67;24.83;;;;;;;;;;5113242;28;20028;-52
2024/01/11 07:36:15;;;;;;;43.70;23.57;;;;;;;;;;5113357;28;20032;-47
2024/01/11 07:38:41;;;;;;;45.53;25.07;;;;;;;;;;5113271;28;20084;-48
2024/01/11 07:41:07;;;;;;;38.80;23.33;;;;;;;;;;5113027;28;20257;-47
2024/01/11 07:43:35;;;;;;;44.92;24.27;;;;;;;;;;5112823;28;20464;-47
2024/01/11 07:46:05;;;;;;;44.42;24.50;;;;;;;;;;5111691;28;20027;-49
2024/01/11 07:48:31;;;;;;;42.83;23.92;;;;;;;;;;5113052;28;20221;-48
2024/01/11 07:50:58;;;;;;;41.57;25.20;;;;;;;;;;5112976;28;20152;-52
2024/01/11 07:53:24;;;;;;;42.15;24.00;;;;;;;;;;5112711;28;20024;-47
2024/01/11 07:55:51;;;;;;;43.75;23.83;;;;;;;;;;5112568;28;20019;-46
2024/01/11 07:58:17;;;;;;;42.80;26.38;;;;;;;;;;5112903;28;20030;-48
2024/01/11 08:00:43;;;;;;;43.97;25.10;;;;;;;;;;5112810;28;20028;-48
2024/01/11 08:03:09;;;;;;;41.80;24.08;;;;;;;;;;5112855;28;20413;-47
2024/01/11 08:05:35;;;;;;;46.17;25.53;;;;;;;;;;5111272;28;20547;-48
2024/01/11 08:08:03;;;;;;;42.53;23.85;;;;;;;;;;5112669;28;20372;-51
2024/01/11 08:10:32;;;;;;;36.83;21.80;;;;;;;;;;5112551;28;20110;-49
2024/01/11 08:12:59;;;;;;;40.33;22.98;;;;;;;;;;5112511;28;20031;-50
2024/01/11 08:15:25;;;;;;;38.78;24.02;;;;;;;;;;5111007;28;20106;-48
2024/01/11 08:17:52;;;;;;;48.10;24.77;;;;;;;;;;5112533;28;20032;-48
2024/01/11 08:20:19;;;;;;;47.10;23.43;;;;;;;;;;5112614;28;20350;-50
2024/01/11 08:22:48;;;;;;;44.90;24.95;;;;;;;;;;5112385;28;20023;-51
2024/01/11 08:25:15;;;;;;;40.03;24.85;;;;;;;;;;5112046;28;20131;-53
2024/01/11 08:27:41;;;;;;;44.00;25.90;;;;;;;;;;5110955;28;20035;-49
2024/01/11 08:30:08;;;;;;;30.70;18.03;;;;;;;;;;5112623;28;20371;-48
2024/01/11 08:32:38;;;;;;;39.38;23.00;;;;;;;;;;5111113;28;20134;-50
2024/01/11 08:35:06;;;;;;;56.38;27.30;;;;;;;;;;5111969;28;20035;-49
2024/01/11 08:37:33;;;;;;;42.75;22.73;;;;;;;;;;5112082;28;20311;-50
2024/01/11 08:39:59;;;;;;;44.60;24.52;;;;;;;;;;5111013;28;20508;-52
2024/01/11 08:42:25;;;;;;;38.75;24.60;;;;;;;;;;5112237;28;20092;-49
2024/01/11 08:44:52;;;;;;;42.70;25.73;;;;;;;;;;5111863;28;20031;-48
2024/01/11 08:47:18;;;;;;;42.33;25.77;;;;;;;;;;5112153;28;20027;-50
2024/01/11 08:49:44;;;;;;;46.30;24.10;;;;;;;;;;5112108;28;20023;-48
2024/01/11 08:52:10;;;;;;;43.05;24.10;;;;;;;;;;5110859;28;20611;-48
2024/01/11 08:54:36;;;;;;;48.63;25.47;;;;;;;;;;5110581;28;20032;-48
2024/01/11 08:57:03;;;;;;;38.13;22.52;;;;;;;;;;5112081;28;20089;-51
2024/01/11 08:59:29;;;;;;;33.90;21.45;;;;;;;;;;5110593;28;20081;-51
2024/01/11 09:01:55;;;;;;;37.92;21.90;;;;;;;;;;5110726;28;20134;-51
2024/01/11 09:04:21;;;;;;;43.30;24.25;;;;;;;;;;5110513;28;20036;-53
2024/01/11 09:06:47;;;;;;;44.97;23.70;;;;;;;;;;5110651;28;20047;-50
2024/01/11 09:09:14;;;;;;;41.78;25.17;;;;;;;;;;5111902;28;20038;-52
2024/01/11 09:11:40;;;;;;;40.78;24.05;;;;;;;;;;5110812;28;20477;-51
2024/01/11 09:14:07;;;;;;;42.10;23.80;;;;;;;;;;5111682;28;20023;-52
2024/01/11 09:16:33;;;;;;;40.20;22.65;;;;;;;;;;5111861;28;20024;-52
2024/01/11 09:19:00;;;;;;;38.37;22.03;;;;;;;;;;5093613;28;20032;-50
2024/01/11 09:21:26;;;;;;;39.83;22.53;;;;;;;;;;5111806;28;20281;-51
2024/01/11 09:23:53;;;;;;;36.13;22.35;;;;;;;;;;5112193;28;20265;-49
2024/01/11 09:26:19;;;;;;;39.97;21.60;;;;;;;;;;5115847;28;20023;-50
2024/01/11 09:28:45;;;;;;;39.83;22.87;;;;;;;;;;5115748;28;20039;-48
2024/01/11 09:31:12;;;;;;;37.30;23.38;;;;;;;;;;5115748;28;20399;-51
2024/01/11 09:33:38;;;;;;;37.05;22.65;;;;;;;;;;5115361;28;20481;-50
2024/01/11 09:36:05;;;;;;;34.95;22.40;;;;;;;;;;5115410;28;20508;-48
2024/01/11 09:38:31;;;;;;;38.38;23.48;;;;;;;;;;5114287;28;20023;-50
2024/01/11 09:41:11;;;;;;;37.08;21.95;;;;;;;;;;5115677;28;20040;-49
2024/01/11 09:43:37;;;;;;;35.28;20.77;;;;;;;;;;5114030;28;20117;-48
2024/01/11 09:46:07;;;;;;;41.75;22.80;;;;;;;;;;5115374;28;20046;-51
2024/01/11 09:48:34;;;;;;;39.60;21.80;;;;;;;;;;5115329;28;20028;-48
2024/01/11 09:51:04;;;;;;;31.85;20.67;;;;;;;;;;5114301;28;20474;-49
2024/01/11 09:53:32;;;;;;;31.60;19.88;;;;;;;;;;5113990;28;20059;-52
2024/01/11 09:55:59;;;;;;;34.25;21.08;;;;;;;;;;5115141;28;20053;-50
2024/01/11 09:58:25;;;;;;;37.75;21.13;;;;;;;;;;5114017;28;20066;-49
2024/01/11 10:00:55;;;;;;;42.70;22.50;;;;;;;;;;5113689;28;20039;-50
2024/01/11 10:03:22;;;;;;;32.95;21.20;;;;;;;;;;5115107;28;20110;-52
2024/01/11 10:05:50;;;;;;;32.17;20.20;;;;;;;;;;5114844;28;20375;-53
2024/01/11 10:08:22;;;;;;;33.28;20.98;;;;;;;;;;5113706;28;20040;-48
2024/01/11 10:10:48;;;;;;;34.42;21.08;;;;;;;;;;5114993;28;20020;-50
2024/01/11 10:13:16;;;;;;;34.17;21.00;;;;;;;;;;5114872;28;20094;-51
2024/01/11 10:15:43;;;;;;;32.28;19.83;;;;;;;;;;5114533;28;20084;-50
2024/01/11 10:18:09;;;;;;;34.53;20.02;;;;;;;;;;5114943;28;20534;-52
2024/01/11 10:20:35;;;;;;;34.22;19.40;;;;;;;;;;5114889;28;20031;-52
2024/01/11 10:23:02;;;;;;;31.38;18.15;;;;;;;;;;5114794;28;20019;-49
2024/01/11 10:25:29;;;;;;;36.90;19.35;;;;;;;;;;5114500;28;20020;-53
2024/01/11 10:27:55;;;;;;;32.17;19.97;;;;;;;;;;5096193;28;20032;-53
2024/01/11 10:30:23;;;;;;;33.70;19.75;;;;;;;;;;5114619;28;20047;-49
2024/01/11 10:32:49;;;;;;;32.75;19.85;;;;;;;;;;5114571;28;20023;-49
2024/01/11 10:35:17;;;;;;;33.90;19.20;;;;;;;;;;5113371;28;20106;-52
2024/01/11 10:37:44;;;;;;;30.23;17.67;;;;;;;;;;5114551;28;20036;-49
2024/01/11 10:40:12;;;;;;;36.15;18.60;;;;;;;;;;5113274;28;20438;-50
2024/01/11 10:42:45;;;;;;;29.95;19.23;;;;;;;;;;5114259;28;20035;-50
2024/01/11 10:45:21;;;;;;;27.08;18.05;;;;;;;;;;5112794;28;20038;-50
2024/01/11 10:47:51;;;;;;;27.75;17.67;;;;;;;;;;5112937;28;20031;-50
2024/01/11 10:50:19;;;;;;;30.92;18.58;;;;;;;;;;5114267;28;20084;-54
2024/01/11 10:52:53;;;;;;;32.42;16.88;;;;;;;;;;5112806;28;20019;-49
2024/01/11 10:55:20;;;;;;;31.17;17.58;;;;;;;;;;5114079;28;20028;-52
2024/01/11 10:57:48;;;;;;;25.35;17.15;;;;;;;;;;5114084;28;20451;-50
2024/01/11 11:00:14;;;;;;;35.72;16.20;;;;;;;;;;5114024;28;20031;-52
2024/01/11 11:02:41;;;;;;;27.50;16.07;;;;;;;;;;5113983;28;20547;-52
2024/01/11 11:05:09;;;;;;;25.70;16.52;;;;;;;;;;5112358;28;20284;-49
2024/01/11 11:07:36;;;;;;;27.80;15.95;;;;;;;;;;5113681;28;20494;-52
2024/01/11 11:10:04;;;;;;;24.92;15.75;;;;;;;;;;5113878;28;20493;-51
2024/01/11 11:12:34;;;;;;;27.80;17.05;;;;;;;;;;5113742;28;20038;-49
2024/01/11 11:15:02;;;;;;;28.25;17.48;;;;;;;;;;5112224;28;20024;-52
2024/01/11 11:17:29;;;;;;;26.70;16.77;;;;;;;;;;5113717;28;20030;-49
2024/01/11 11:19:55;;;;;;;;;;;;;;;;;;5113999;28;20068;-50
2024/01/11 11:22:21;;;;;;;28.65;16.85;;;;;;;;;;5113536;28;19910;-54
2024/01/11 11:24:47;;;;;;;25.02;16.77;;;;;;;;;;5113295;28;20516;-53
2024/01/11 11:27:17;;;;;;;27.60;17.70;;;;;;;;;;5113388;28;20023;-49
2024/01/11 11:29:49;;;;;;;25.08;15.32;;;;;;;;;;5112139;28;20012;-51
2024/01/11 11:32:17;;;;;;;26.52;17.08;;;;;;;;;;5113446;28;20027;-50
2024/01/11 11:34:46;;;;;;;33.60;16.83;;;;;;;;;;5112862;28;20053;-53
2024/01/11 11:37:13;;;;;;;27.55;16.92;;;;;;;;;;5113370;28;20055;-49
2024/01/11 11:39:39;;;;;;;28.42;18.83;;;;;;;;;;5113441;28;20545;-49
2024/01/11 11:42:05;;;;;;;26.50;17.38;;;;;;;;;;5113681;28;20547;-50
2024/01/11 11:44:32;;;;;;;24.73;14.85;;;;;;;;;;5112978;28;20032;-50
2024/01/11 11:47:19;;;;;;;25.35;16.33;;;;;;;;;;5112552;28;20028;-52
2024/01/11 11:50:07;;;;;;;24.23;15.48;;;;;;;;;;5112792;28;20023;-52
2024/01/11 11:52:41;;;;;;;27.33;16.77;;;;;;;;;;5112987;28;20027;-50
2024/01/11 11:55:08;;;;;;;30.27;17.13;;;;;;;;;;5112610;28;20024;-51
2024/01/11 11:57:37;;;;;;;26.65;17.00;;;;;;;;;;5112729;28;20062;-52
2024/01/11 12:00:06;;;;;;;26.98;17.08;;;;;;;;;;5112835;27;20024;-50
2024/01/11 12:02:39;;;;;;;31.30;18.15;;;;;;;;;;5111681;28;20027;-49
2024/01/11 12:05:05;;;;;;;30.93;17.73;;;;;;;;;;5112479;28;20085;-48
2024/01/11 12:07:32;;;;;;;27.13;16.60;;;;;;;;;;5111385;28;20098;-53
2024/01/11 12:09:58;;;;;;;29.08;17.67;;;;;;;;;;5101404;28;20428;-52
2024/01/11 12:12:24;;;;;;;29.60;17.25;;;;;;;;;;5110178;28;20419;-52
2024/01/11 12:14:50;;;;;;;29.73;18.07;;;;;;;;;;5107680;28;20061;-50
2024/01/11 12:17:17;;;;;;;29.70;17.73;;;;;;;;;;5110814;28;20027;-52
2024/01/11 12:19:43;;;;;;;31.13;20.00;;;;;;;;;;5092140;28;20024;-50
2024/01/11 12:22:09;;;;;;;27.60;16.93;;;;;;;;;;5091682;28;20024;-50
2024/01/11 12:24:36;;;;;;;26.30;17.27;;;;;;;;;;5090395;28;20406;-52
2024/01/11 12:27:02;;;;;;;28.53;19.67;;;;;;;;;;5090749;28;20067;-54
2024/01/11 12:29:31;;;;;;;28.25;18.98;;;;;;;;;;5090801;28;20398;-53
2024/01/11 12:32:00;;;;;;;24.80;18.20;;;;;;;;;;5090725;28;20138;-48
2024/01/11 12:34:27;;;;;;;29.52;19.67;;;;;;;;;;5091967;28;20430;-49
2024/01/11 12:36:55;;;;;;;25.88;18.98;;;;;;;;;;5090681;28;20036;-53
2024/01/11 12:39:24;;;;;;;26.10;18.73;;;;;;;;;;5092011;28;20406;-50
2024/01/11 12:41:51;;;;;;;29.98;20.17;;;;;;;;;;5091863;28;20054;-51
2024/01/11 12:44:18;;;;;;;;;;;;;;;;;;5090870;28;20497;-54
2024/01/11 12:46:45;;;;;;;29.48;18.83;;;;;;;;;;5091955;28;20279;-52
2024/01/11 12:49:11;;;;;;;28.98;19.85;;;;;;;;;;5090689;28;20031;-52
2024/01/11 12:51:39;;;;;;;29.98;19.23;;;;;;;;;;5091649;28;20023;-54
2024/01/11 12:54:10;;;;;;;30.60;20.98;;;;;;;;;;5090309;28;20028;-52
2024/01/11 12:56:41;;;;;;;30.45;19.67;;;;;;;;;;5091845;28;20444;-54
2024/01/11 12:59:08;;;;;;;26.73;19.83;;;;;;;;;;5092774;28;20040;-50
2024/01/11 13:01:35;;;;;;;29.80;20.55;;;;;;;;;;5095992;28;20058;-51
2024/01/11 13:04:02;;;;;;;28.30;20.27;;;;;;;;;;5095500;28;20547;-49
2024/01/11 13:06:29;;;;;;;32.85;21.13;;;;;;;;;;5095678;28;20074;-57
2024/01/11 13:08:56;;;;;;;29.23;21.00;;;;;;;;;;5094415;28;20031;-53
2024/01/11 13:11:24;;;;;;;31.42;22.25;;;;;;;;;;5097513;28;20055;-50
2024/01/11 13:13:50;;;;;;;27.27;20.73;;;;;;;;;;5114934;28;20035;-50
2024/01/11 13:16:18;;;;;;;29.37;20.50;;;;;;;;;;5114394;28;20397;-51
2024/01/11 13:18:45;;;;;;;30.48;22.98;;;;;;;;;;5114925;28;20268;-50
2024/01/11 13:21:14;;;;;;;30.48;21.73;;;;;;;;;;5115920;28;20102;-49
2024/01/11 13:23:40;;;;;;;33.25;21.75;;;;;;;;;;5114280;28;20024;-49
2024/01/11 13:26:07;;;;;;;26.38;20.48;;;;;;;;;;5115696;28;20466;-52
2024/01/11 13:28:36;;;;;;;27.35;20.55;;;;;;;;;;5115727;28;20031;-50
2024/01/11 13:31:02;;;;;;;29.75;20.50;;;;;;;;;;5115680;28;20024;-50
2024/01/11 13:33:29;;;;;;;28.43;21.10;;;;;;;;;;5114234;28;20165;-52
2024/01/11 13:35:55;;;;;;;26.77;20.17;;;;;;;;;;5114328;28;20024;-51
2024/01/11 13:38:21;;;;;;;33.53;21.90;;;;;;;;;;5115566;28;20023;-51
2024/01/11 13:40:47;;;;;;;29.33;21.47;;;;;;;;;;5115627;28;20496;-54
2024/01/11 13:43:14;;;;;;;28.88;21.75;;;;;;;;;;5114291;28;20119;-51
2024/01/11 13:45:40;;;;;;;27.33;21.27;;;;;;;;;;5115243;28;20024;-50
2024/01/11 13:48:06;;;;;;;29.90;21.95;;;;;;;;;;5114455;28;20081;-50
2024/01/11 13:50:33;;;;;;;30.42;21.15;;;;;;;;;;5111201;28;20024;-50
2024/01/11 13:52:59;;;;;;;29.73;22.20;;;;;;;;;;5112866;28;20508;-51
2024/01/11 13:55:25;;;;;;;32.23;22.27;;;;;;;;;;5113587;28;20093;-51
2024/01/11 13:57:53;;;;;;;29.10;20.27;;;;;;;;;;5113863;28;20042;-52
2024/01/11 14:00:19;;;;;;;28.67;20.52;;;;;;;;;;5113445;28;20027;-45
2024/01/11 14:02:46;;;;;;;27.55;20.98;;;;;;;;;;5114794;28;20554;-46
2024/01/11 14:05:14;;;;;;;;;;;;;;;;;;5115237;28;20034;-45
2024/01/11 14:07:40;;;;;;;36.90;22.83;;;;;;;;;;5114706;28;20297;-46
2024/01/11 14:10:11;;;;;;;31.40;20.92;;;;;;;;;;5114536;28;20085;-48
2024/01/11 14:12:37;;;;;;;29.00;21.50;;;;;;;;;;5115052;28;20401;-50
2024/01/11 14:15:05;;;;;;;29.43;21.30;;;;;;;;;;5114504;28;20397;-51
2024/01/11 14:17:33;;;;;;;28.15;21.00;;;;;;;;;;5110646;28;20619;-50